createdAt,value
2018-11-02T00:03:02.157Z,9.53
2018-11-02T00:06:05.762Z,10.57
2018-11-02T00:09:09.194Z,9.13
2018-11-02T00:12:12.779Z,9.87
2018-11-02T00:15:16.217Z,9.83
2018-11-02T00:18:19.891Z,8.70
2018-11-02T00:21:23.331Z,8.60
2018-11-02T00:24:27.438Z,10.07
2018-11-02T00:27:30.931Z,8.40
2018-11-02T00:30:34.477Z,7.63
2018-11-02T00:33:37.991Z,7.37
2018-11-02T00:36:41.599Z,7.80
2018-11-02T00:39:45.161Z,7.83
2018-11-02T00:42:48.713Z,7.60
2018-11-02T00:45:52.137Z,7.30
2018-11-02T00:48:55.960Z,7.00
2018-11-02T00:51:59.356Z,7.60
2018-11-02T00:55:02.838Z,6.67
2018-11-02T00:58:07.542Z,6.77
2018-11-02T01:01:11.021Z,6.73
2018-11-02T01:04:14.563Z,6.30
2018-11-02T01:07:18.052Z,5.87
2018-11-02T01:10:21.560Z,6.00
2018-11-02T01:13:25.001Z,5.50
2018-11-02T01:16:28.481Z,5.57
2018-11-02T01:19:33.875Z,5.00
2018-11-02T01:22:37.421Z,5.23
2018-11-02T01:25:40.879Z,5.40
2018-11-02T01:28:44.381Z,4.90
2018-11-02T01:31:47.951Z,5.20
2018-11-02T01:34:51.446Z,4.80
2018-11-02T01:37:54.946Z,5.33
2018-11-02T01:40:58.594Z,4.60
2018-11-02T01:44:02.085Z,4.53
2018-11-02T01:47:05.514Z,5.10
2018-11-02T01:50:08.990Z,5.33
2018-11-02T01:53:12.648Z,4.67
2018-11-02T01:56:16.207Z,4.83
2018-11-02T01:59:19.692Z,4.60
2018-11-02T02:02:23.079Z,4.27
2018-11-02T02:05:26.489Z,5.30
2018-11-02T02:08:29.903Z,4.47
2018-11-02T02:11:33.303Z,5.03
2018-11-02T02:14:36.872Z,4.70
2018-11-02T02:17:40.306Z,4.60
2018-11-02T02:20:43.758Z,4.53
2018-11-02T02:23:47.212Z,4.30
2018-11-02T02:26:50.677Z,4.50
2018-11-02T02:29:53.984Z,4.50
2018-11-02T02:32:57.387Z,4.30
2018-11-02T02:36:00.889Z,4.30
2018-11-02T02:39:05.216Z,4.20
2018-11-02T02:42:08.719Z,4.47
2018-11-02T02:45:12.854Z,3.83
2018-11-02T02:48:16.239Z,4.20
2018-11-02T02:51:19.863Z,4.80
2018-11-02T02:54:23.229Z,4.00
2018-11-02T02:57:26.901Z,4.20
2018-11-02T03:00:31.280Z,4.23
2018-11-02T03:03:34.728Z,4.40
2018-11-02T03:06:38.212Z,4.50
2018-11-02T03:09:41.690Z,4.20
2018-11-02T03:12:45.147Z,4.57
2018-11-02T03:15:48.585Z,4.53
2018-11-02T03:18:52.265Z,4.13
2018-11-02T03:21:55.569Z,4.40
2018-11-02T03:24:59.085Z,4.40
2018-11-02T03:28:02.613Z,4.17
2018-11-02T03:31:06.282Z,4.10
2018-11-02T03:34:09.691Z,4.10
2018-11-02T03:37:13.205Z,4.60
2018-11-02T03:40:16.764Z,4.20
2018-11-02T03:43:20.418Z,3.93
2018-11-02T03:46:23.904Z,4.33
2018-11-02T03:49:27.425Z,4.37
2018-11-02T03:52:30.974Z,4.00
2018-11-02T03:55:34.552Z,4.97
2018-11-02T03:58:38.090Z,4.90
2018-11-02T04:01:41.749Z,4.40
2018-11-02T04:04:45.415Z,4.63
2018-11-02T04:07:48.997Z,4.17
2018-11-02T04:10:53.500Z,4.20
2018-11-02T04:13:57.027Z,4.20
2018-11-02T04:17:00.577Z,4.37
2018-11-02T04:20:04.861Z,4.20
2018-11-02T04:23:08.402Z,4.17
2018-11-02T04:26:11.947Z,3.80
2018-11-02T04:29:16.153Z,4.30
2018-11-02T04:32:19.834Z,4.03
2018-11-02T04:35:23.356Z,3.60
2018-11-02T04:38:26.832Z,4.03
2018-11-02T04:41:32.392Z,4.13
2018-11-02T04:44:36.053Z,4.37
2018-11-02T04:47:39.657Z,4.47
2018-11-02T04:50:43.143Z,4.47
2018-11-02T04:53:47.716Z,4.00
2018-11-02T04:56:51.832Z,4.47
2018-11-02T04:59:55.408Z,4.47
2018-11-02T05:02:58.955Z,4.50
2018-11-02T05:06:02.530Z,3.90
2018-11-02T05:09:07.883Z,4.30
2018-11-02T05:12:11.475Z,5.43
2018-11-02T05:15:15.037Z,5.13
2018-11-02T05:18:18.607Z,4.83
2018-11-02T05:21:22.203Z,4.30
2018-11-02T05:24:25.796Z,4.00
2018-11-02T05:27:29.493Z,3.80
2018-11-02T05:30:32.953Z,4.00
2018-11-02T05:33:36.579Z,3.73
2018-11-02T05:36:40.121Z,4.10
2018-11-02T05:39:44.029Z,4.40
2018-11-02T05:42:47.562Z,4.47
2018-11-02T05:45:51.132Z,3.83
2018-11-02T05:48:54.757Z,4.00
2018-11-02T05:51:58.350Z,3.87
2018-11-02T05:55:01.873Z,3.87
2018-11-02T05:58:05.638Z,3.63
2018-11-02T06:01:09.123Z,3.93
2018-11-02T06:04:12.662Z,3.97
2018-11-02T06:07:16.215Z,3.80
2018-11-02T06:10:19.717Z,4.47
2018-11-02T06:13:23.337Z,4.40
2018-11-02T06:16:26.912Z,4.27
2018-11-02T06:19:30.458Z,4.03
2018-11-02T06:22:33.979Z,4.67
2018-11-02T06:25:37.505Z,4.33
2018-11-02T06:28:41.077Z,4.53
2018-11-02T06:31:44.601Z,4.37
2018-11-02T06:34:49.357Z,4.43
2018-11-02T06:37:52.947Z,4.50
2018-11-02T06:40:56.687Z,4.07
2018-11-02T06:44:00.362Z,4.37
2018-11-02T06:47:03.976Z,4.47
2018-11-02T06:50:07.898Z,4.53
2018-11-02T06:53:11.443Z,4.40
2018-11-02T06:56:15.005Z,4.40
2018-11-02T06:59:18.646Z,4.20
2018-11-02T07:02:22.041Z,4.43
2018-11-02T07:05:25.542Z,4.90
2018-11-02T07:08:29.470Z,5.57
2018-11-02T07:11:34.015Z,5.50
2018-11-02T07:14:37.501Z,5.20
2018-11-02T07:17:41.008Z,5.50
2018-11-02T07:20:44.545Z,5.80
2018-11-02T07:23:48.055Z,5.80
2018-11-02T07:26:51.656Z,5.97
2018-11-02T07:29:55.398Z,6.17
2018-11-02T07:32:59.029Z,7.03
2018-11-02T07:36:02.555Z,6.80
2018-11-02T07:39:09.281Z,6.63
2018-11-02T07:42:12.729Z,8.63
2018-11-02T07:45:16.253Z,9.90
2018-11-02T07:48:19.867Z,9.00
2018-11-02T07:51:24.259Z,9.63
2018-11-02T07:54:27.954Z,9.30
2018-11-02T07:57:31.643Z,9.00
2018-11-02T08:00:35.207Z,8.33
2018-11-02T08:03:39.085Z,8.07
2018-11-02T08:06:42.837Z,6.67
2018-11-02T08:09:46.510Z,6.67
2018-11-02T08:12:50.043Z,6.73
2018-11-02T08:15:53.542Z,6.67
2018-11-02T08:18:57.259Z,6.00
2018-11-02T08:22:00.799Z,4.10
2018-11-02T08:25:05.305Z,4.10
2018-11-02T08:28:09.171Z,4.10
2018-11-02T08:31:12.713Z,3.30
2018-11-02T08:34:16.313Z,3.23
2018-11-02T08:37:19.871Z,3.03
2018-11-02T08:40:23.674Z,3.07
2018-11-02T08:43:27.236Z,2.93
2018-11-02T08:46:30.898Z,3.00
2018-11-02T08:49:34.610Z,3.37
2018-11-02T08:52:38.114Z,3.43
2018-11-02T08:55:41.801Z,3.90
2018-11-02T08:58:46.706Z,4.13
2018-11-02T09:01:49.897Z,3.93
2018-11-02T09:04:53.667Z,3.77
2018-11-02T09:07:57.356Z,3.40
2018-11-02T09:11:00.870Z,3.03
2018-11-02T09:14:04.745Z,2.50
2018-11-02T09:17:08.620Z,2.73
2018-11-02T09:20:12.329Z,3.20
2018-11-02T09:23:16.470Z,3.23
2018-11-02T09:26:20.063Z,3.87
2018-11-02T09:29:23.543Z,3.00
2018-11-02T09:32:27.206Z,2.70
2018-11-02T09:35:30.729Z,2.63
2018-11-02T09:38:34.244Z,2.73
2018-11-02T09:41:37.783Z,2.40
2018-11-02T09:44:42.259Z,2.33
2018-11-02T09:47:45.751Z,2.37
2018-11-02T09:50:49.241Z,2.73
2018-11-02T09:53:52.813Z,2.40
2018-11-02T09:56:56.468Z,2.87
2018-11-02T10:00:00.034Z,2.40
2018-11-02T10:03:03.603Z,2.30
2018-11-02T10:06:07.109Z,2.20
2018-11-02T10:09:12.137Z,2.10
2018-11-02T10:12:15.587Z,2.30
2018-11-02T10:15:19.281Z,2.30
2018-11-02T10:18:22.963Z,2.00
2018-11-02T10:21:26.568Z,2.00
2018-11-02T10:24:30.064Z,2.20
2018-11-02T10:27:33.659Z,2.40
2018-11-02T10:30:37.256Z,2.23
2018-11-02T10:33:41.130Z,2.03
2018-11-02T10:36:44.777Z,1.93
2018-11-02T10:39:48.655Z,2.67
2018-11-02T10:42:58.599Z,2.20
2018-11-02T10:46:02.502Z,2.50
2018-11-02T10:49:06.338Z,2.60
2018-11-02T10:52:09.933Z,2.60
2018-11-02T10:55:13.491Z,2.70
2018-11-02T10:58:17.031Z,2.27
2018-11-02T11:01:26.210Z,2.63
2018-11-02T11:04:29.622Z,2.03
2018-11-02T11:07:33.512Z,1.90
2018-11-02T11:10:37.167Z,2.30
2018-11-02T11:13:41.044Z,2.60
2018-11-02T11:16:46.459Z,2.27
2018-11-02T11:19:50.369Z,2.10
2018-11-02T11:22:53.958Z,1.90
2018-11-02T11:25:57.465Z,1.80
2018-11-02T11:29:01.113Z,1.73
2018-11-02T11:32:05.339Z,1.87
2018-11-02T11:35:10.650Z,1.70
2018-11-02T11:38:14.244Z,1.70
2018-11-02T11:41:17.861Z,1.53
2018-11-02T11:44:21.561Z,1.60
2018-11-02T11:47:25.275Z,1.67
2018-11-02T11:50:28.843Z,1.53
2018-11-02T11:53:33.576Z,1.40
2018-11-02T11:56:37.180Z,1.40
2018-11-02T11:59:40.745Z,1.43
2018-11-02T12:02:46.474Z,1.80
2018-11-02T12:05:50.553Z,1.90
2018-11-02T12:08:54.135Z,1.90
2018-11-02T12:11:57.935Z,1.93
2018-11-02T12:15:01.477Z,1.70
2018-11-02T12:18:05.408Z,1.60
2018-11-02T12:21:09.994Z,1.80
2018-11-02T12:24:13.653Z,1.70
2018-11-02T12:27:19.347Z,1.63
2018-11-02T12:30:22.920Z,1.33
2018-11-02T12:33:26.566Z,1.50
2018-11-02T12:36:30.300Z,1.30
2018-11-02T12:39:33.805Z,1.53
2018-11-02T12:42:38.014Z,1.63
2018-11-02T12:45:41.569Z,1.43
2018-11-02T12:48:45.518Z,1.60
2018-11-02T12:51:48.989Z,2.03
2018-11-02T12:54:52.544Z,1.90
2018-11-02T12:57:56.056Z,1.93
2018-11-02T13:00:59.531Z,2.10
2018-11-02T13:04:03.021Z,1.47
2018-11-02T13:07:06.673Z,1.90
2018-11-02T13:10:11.585Z,2.20
2018-11-02T13:13:15.167Z,1.60
2018-11-02T13:16:18.732Z,1.40
2018-11-02T13:19:22.240Z,1.63
2018-11-02T13:22:25.808Z,1.40
2018-11-02T13:25:29.275Z,1.20
2018-11-02T13:28:32.733Z,2.00
2018-11-02T13:31:36.255Z,1.57
2018-11-02T13:34:39.704Z,1.40
2018-11-02T13:37:43.917Z,1.47
2018-11-02T13:40:47.428Z,1.20
2018-11-02T13:43:51.065Z,1.30
2018-11-02T13:46:54.558Z,1.30
2018-11-02T13:49:58.004Z,1.47
2018-11-02T13:53:01.501Z,2.30
2018-11-02T13:56:05.456Z,1.40
2018-11-02T13:59:08.850Z,1.23
2018-11-02T14:02:12.281Z,1.10
2018-11-02T14:05:16.676Z,1.27
2018-11-02T14:08:20.200Z,1.20
2018-11-02T14:11:23.648Z,1.13
2018-11-02T14:14:27.211Z,1.30
2018-11-02T14:17:30.690Z,1.43
2018-11-02T14:20:34.184Z,1.50
2018-11-02T14:23:37.756Z,1.27
2018-11-02T14:26:41.321Z,1.50
2018-11-02T14:29:44.789Z,1.60
2018-11-02T14:32:48.908Z,1.20
2018-11-02T14:35:52.445Z,1.17
2018-11-02T14:38:55.910Z,1.40
2018-11-02T14:41:59.441Z,1.60
2018-11-02T14:45:02.937Z,1.30
2018-11-02T14:48:06.513Z,1.30
2018-11-02T14:51:09.889Z,1.50
2018-11-02T14:54:13.525Z,1.60
2018-11-02T14:57:17.246Z,1.50
2018-11-02T15:00:20.754Z,1.40
2018-11-02T15:03:24.291Z,1.50
2018-11-02T15:06:27.767Z,1.63
2018-11-02T15:09:31.217Z,1.37
2018-11-02T15:12:34.677Z,1.40
2018-11-02T15:15:38.146Z,1.63
2018-11-02T15:18:41.746Z,3.10
2018-11-02T15:21:45.287Z,10.23
2018-11-02T15:24:49.541Z,6.20
2018-11-02T15:27:53.067Z,4.00
2018-11-02T15:30:56.574Z,2.13
2018-11-02T15:34:00.104Z,1.90
2018-11-02T15:37:03.634Z,2.03
2018-11-02T15:40:08.228Z,1.73
2018-11-02T15:43:11.699Z,3.53
2018-11-02T15:46:15.093Z,2.37
2018-11-02T15:49:18.620Z,1.77
2018-11-02T15:52:22.161Z,2.00
2018-11-02T15:55:25.660Z,1.57
2018-11-02T15:58:29.159Z,1.70
2018-11-02T16:01:32.796Z,1.83
2018-11-02T16:04:36.204Z,1.87
2018-11-02T16:07:39.966Z,1.80
2018-11-02T16:10:43.508Z,2.00
2018-11-02T16:13:46.971Z,2.10
2018-11-02T16:16:50.474Z,2.10
2018-11-02T16:19:53.936Z,2.03
2018-11-02T16:22:57.391Z,2.43
2018-11-02T16:26:00.904Z,2.40
2018-11-02T16:29:04.375Z,2.77
2018-11-02T16:32:07.870Z,3.43
2018-11-02T16:35:12.595Z,3.20
2018-11-02T16:38:16.128Z,4.03
2018-11-02T16:41:19.549Z,4.33
2018-11-02T16:44:23.194Z,10.30
2018-11-02T16:47:26.833Z,4.90
2018-11-02T16:50:30.540Z,4.00
2018-11-02T16:53:33.799Z,3.63
2018-11-02T16:56:38.346Z,1.90
2018-11-02T16:59:42.026Z,1.90
2018-11-02T17:02:46.580Z,1.90
2018-11-02T17:05:50.361Z,2.10
2018-11-02T17:08:53.869Z,2.10
2018-11-02T17:11:57.415Z,1.93
2018-11-02T17:15:01.012Z,1.80
2018-11-02T17:18:05.163Z,2.67
2018-11-02T17:21:08.733Z,2.30
2018-11-02T17:24:12.513Z,2.70
2018-11-02T17:27:16.251Z,2.20
2018-11-02T17:30:20.754Z,2.40
2018-11-02T17:33:24.243Z,2.33
2018-11-02T17:36:27.737Z,2.70
2018-11-02T17:39:31.288Z,2.90
2018-11-02T17:42:34.751Z,2.93
2018-11-02T17:45:38.357Z,3.53
2018-11-02T17:48:41.902Z,3.40
2018-11-02T17:51:45.551Z,3.13
2018-11-02T17:54:49.205Z,3.40
2018-11-02T17:57:53.912Z,3.27
2018-11-02T18:00:57.786Z,3.57
2018-11-02T18:04:01.376Z,3.50
2018-11-02T18:07:05.605Z,3.57
2018-11-02T18:10:11.341Z,3.30
2018-11-02T18:13:14.946Z,3.27
2018-11-02T18:16:18.639Z,3.67
2018-11-02T18:19:22.287Z,4.20
2018-11-02T18:22:25.938Z,3.93
2018-11-02T18:25:29.593Z,3.67
2018-11-02T18:28:33.137Z,4.37
2018-11-02T18:31:36.682Z,4.17
2018-11-02T18:34:40.333Z,4.77
2018-11-02T18:37:43.909Z,4.13
2018-11-02T18:40:47.509Z,4.87
2018-11-02T18:43:51.295Z,5.53
2018-11-02T18:46:54.935Z,5.67
2018-11-02T18:49:58.501Z,5.60
2018-11-02T18:53:03.104Z,4.50
2018-11-02T18:56:06.705Z,4.70
2018-11-02T18:59:10.335Z,4.23
2018-11-02T19:02:13.919Z,5.40
2018-11-02T19:05:18.544Z,5.13
2018-11-02T19:08:22.505Z,4.93
2018-11-02T19:11:26.234Z,4.97
2018-11-02T19:14:29.969Z,5.03
2018-11-02T19:17:33.530Z,5.10
2018-11-02T19:20:37.136Z,5.40
2018-11-02T19:23:40.730Z,5.40
2018-11-02T19:26:44.605Z,5.27
2018-11-02T19:29:48.459Z,5.60
2018-11-02T19:32:53.006Z,5.37
2018-11-02T19:35:56.507Z,5.70
2018-11-02T19:39:00.131Z,5.20
2018-11-02T19:42:03.701Z,5.83
2018-11-02T19:45:08.150Z,6.27
2018-11-02T19:48:11.706Z,5.50
2018-11-02T19:51:15.137Z,5.63
2018-11-02T19:54:18.902Z,5.20
2018-11-02T19:57:22.454Z,5.13
2018-11-02T20:00:25.908Z,4.87
2018-11-02T20:03:29.413Z,5.03
2018-11-02T20:06:32.871Z,4.97
2018-11-02T20:09:36.369Z,4.30
2018-11-02T20:12:39.866Z,4.77
2018-11-02T20:15:46.759Z,4.80
2018-11-02T20:18:50.289Z,4.57
2018-11-02T20:21:53.910Z,4.33
2018-11-02T20:24:57.390Z,4.43
2018-11-02T20:28:00.870Z,4.50
2018-11-02T20:31:04.528Z,4.60
2018-11-02T20:34:08.551Z,5.07
2018-11-02T20:37:12.028Z,4.80
2018-11-02T20:40:17.242Z,4.53
2018-11-02T20:43:20.702Z,4.63
2018-11-02T20:46:24.224Z,4.10
2018-11-02T20:49:28.888Z,4.73
2018-11-02T20:52:32.429Z,4.70
2018-11-02T20:55:35.905Z,4.23
2018-11-02T20:58:39.429Z,4.37
2018-11-02T21:01:42.872Z,4.33
2018-11-02T21:04:46.583Z,4.67
2018-11-02T21:07:50.863Z,4.60
2018-11-02T21:10:54.319Z,4.60
2018-11-02T21:13:58.204Z,4.30
2018-11-02T21:17:01.775Z,4.07
2018-11-02T21:20:06.952Z,4.63
2018-11-02T21:23:10.646Z,4.60
2018-11-02T21:26:14.123Z,5.37
2018-11-02T21:29:17.635Z,5.07
2018-11-02T21:32:22.293Z,4.43
2018-11-02T21:35:25.868Z,4.50
2018-11-02T21:38:29.533Z,4.43
2018-11-02T21:41:32.970Z,4.53
2018-11-02T21:44:36.458Z,4.30
2018-11-02T21:47:40.098Z,4.33
2018-11-02T21:50:43.546Z,4.50
2018-11-02T21:53:47.107Z,4.50
2018-11-02T21:56:50.627Z,4.93
2018-11-02T21:59:54.103Z,5.10
2018-11-02T22:02:57.640Z,5.07
2018-11-02T22:06:01.358Z,4.77
2018-11-02T22:09:06.771Z,5.30
2018-11-02T22:12:10.241Z,4.70
2018-11-02T22:15:13.711Z,5.20
2018-11-02T22:18:17.232Z,5.10
2018-11-02T22:21:20.681Z,5.37
2018-11-02T22:24:24.191Z,4.67
2018-11-02T22:27:27.744Z,4.87
2018-11-02T22:30:31.244Z,5.30
2018-11-02T22:33:34.759Z,4.73
2018-11-02T22:36:40.300Z,5.10
2018-11-02T22:39:43.745Z,5.93
2018-11-02T22:42:47.337Z,5.57
2018-11-02T22:45:50.926Z,5.37
2018-11-02T22:48:54.480Z,5.63
2018-11-02T22:51:58.154Z,5.90
2018-11-02T22:55:01.750Z,5.63
2018-11-02T22:58:05.709Z,5.47
2018-11-02T23:01:14.316Z,5.93
2018-11-02T23:04:17.859Z,5.43
2018-11-02T23:07:21.428Z,5.93
2018-11-02T23:10:24.996Z,5.77
2018-11-02T23:13:28.514Z,6.07
2018-11-02T23:16:32.007Z,6.03
2018-11-02T23:19:35.659Z,6.10
2018-11-02T23:22:39.018Z,6.33
2018-11-02T23:25:42.507Z,6.20
2018-11-02T23:28:46.046Z,6.40
2018-11-02T23:31:49.536Z,6.60
2018-11-02T23:34:53.119Z,6.10
2018-11-02T23:37:56.748Z,6.07
2018-11-02T23:41:00.264Z,6.57
2018-11-02T23:44:03.806Z,6.57
2018-11-02T23:47:07.355Z,6.90
2018-11-02T23:50:10.906Z,6.60
2018-11-02T23:53:15.364Z,6.63
2018-11-02T23:56:18.936Z,6.80
2018-11-02T23:59:22.534Z,6.40
